sensor_id;sensor_type;location;lat;lon;timestamp;temperature;humidity
14095;DHT22;18096;48.142;16.290;2022-11-14T00:02:11;7.50;99.90
14095;DHT22;18096;48.142;16.290;2022-11-14T00:04:37;7.50;99.90
14095;DHT22;18096;48.142;16.290;2022-11-14T00:07:03;7.50;99.90
14095;DHT22;18096;48.142;16.290;2022-11-14T00:09:29;7.60;99.90
14095;DHT22;18096;48.142;16.290;2022-11-14T00:11:54;7.60;99.90
14095;DHT22;18096;48.142;16.290;2022-11-14T00:14:20;7.60;99.90
14095;DHT22;18096;48.142;16.290;2022-11-14T00:16:46;7.60;99.90
14095;DHT22;18096;48.142;16.290;2022-11-14T00:19:12;7.60;99.90
14095;DHT22;18096;48.142;16.290;2022-11-14T00:21:38;7.60;99.90
14095;DHT22;18096;48.142;16.290;2022-11-14T00:24:04;7.60;99.90
14095;DHT22;18096;48.142;16.290;2022-11-14T00:26:30;7.70;99.90
14095;DHT22;18096;48.142;16.290;2022-11-14T00:28:56;7.70;99.90
14095;DHT22;18096;48.142;16.290;2022-11-14T00:31:21;7.70;99.90
14095;DHT22;18096;48.142;16.290;2022-11-14T00:33:47;7.70;99.90
14095;DHT22;18096;48.142;16.290;2022-11-14T00:36:13;7.70;99.90
14095;DHT22;18096;48.142;16.290;2022-11-14T00:38:39;7.70;99.90
14095;DHT22;18096;48.142;16.290;2022-11-14T00:41:05;7.70;99.90
14095;DHT22;18096;48.142;16.290;2022-11-14T00:43:30;7.70;99.90
14095;DHT22;18096;48.142;16.290;2022-11-14T00:45:56;7.70;99.90
14095;DHT22;18096;48.142;16.290;2022-11-14T00:48:21;7.70;99.90
14095;DHT22;18096;48.142;16.290;2022-11-14T00:50:47;7.70;99.90
14095;DHT22;18096;48.142;16.290;2022-11-14T00:53:13;7.80;99.90
14095;DHT22;18096;48.142;16.290;2022-11-14T00:55:39;7.80;99.90
14095;DHT22;18096;48.142;16.290;2022-11-14T00:58:05;7.80;99.90
14095;DHT22;18096;48.142;16.290;2022-11-14T01:00:31;7.80;99.90
14095;DHT22;18096;48.142;16.290;2022-11-14T01:02:57;7.80;99.90
14095;DHT22;18096;48.142;16.290;2022-11-14T01:05:26;7.80;99.90
14095;DHT22;18096;48.142;16.290;2022-11-14T01:07:52;7.80;99.90
14095;DHT22;18096;48.142;16.290;2022-11-14T01:10:18;7.70;99.90
14095;DHT22;18096;48.142;16.290;2022-11-14T01:12:43;7.80;99.90
14095;DHT22;18096;48.142;16.290;2022-11-14T01:15:09;7.80;99.90
14095;DHT22;18096;48.142;16.290;2022-11-14T01:17:35;7.80;99.90
14095;DHT22;18096;48.142;16.290;2022-11-14T01:20:01;7.80;99.90
14095;DHT22;18096;48.142;16.290;2022-11-14T01:22:28;7.80;99.90
14095;DHT22;18096;48.142;16.290;2022-11-14T01:24:54;7.80;99.90
14095;DHT22;18096;48.142;16.290;2022-11-14T01:27:23;7.80;99.90
14095;DHT22;18096;48.142;16.290;2022-11-14T01:29:49;7.80;99.90
14095;DHT22;18096;48.142;16.290;2022-11-14T01:32:14;7.80;99.90
14095;DHT22;18096;48.142;16.290;2022-11-14T01:34:40;7.80;99.90
14095;DHT22;18096;48.142;16.290;2022-11-14T01:37:06;7.80;99.90
14095;DHT22;18096;48.142;16.290;2022-11-14T01:39:31;7.80;99.90
14095;DHT22;18096;48.142;16.290;2022-11-14T01:41:57;7.80;99.90
14095;DHT22;18096;48.142;16.290;2022-11-14T01:44:45;7.80;99.90
14095;DHT22;18096;48.142;16.290;2022-11-14T01:47:15;7.70;99.90
14095;DHT22;18096;48.142;16.290;2022-11-14T01:49:46;7.70;99.90
14095;DHT22;18096;48.142;16.290;2022-11-14T01:52:30;7.70;99.90
14095;DHT22;18096;48.142;16.290;2022-11-14T01:55:00;7.80;99.90
14095;DHT22;18096;48.142;16.290;2022-11-14T01:57:30;7.70;99.90
14095;DHT22;18096;48.142;16.290;2022-11-14T01:59:59;7.70;99.90
14095;DHT22;18096;48.142;16.290;2022-11-14T02:02:25;7.60;99.90
14095;DHT22;18096;48.142;16.290;2022-11-14T02:05:12;7.60;99.90
14095;DHT22;18096;48.142;16.290;2022-11-14T02:07:39;7.60;99.90
14095;DHT22;18096;48.142;16.290;2022-11-14T02:10:09;7.60;99.90
14095;DHT22;18096;48.142;16.290;2022-11-14T02:12:35;7.60;99.90
14095;DHT22;18096;48.142;16.290;2022-11-14T02:15:02;7.60;99.90
14095;DHT22;18096;48.142;16.290;2022-11-14T02:17:27;7.70;99.90
14095;DHT22;18096;48.142;16.290;2022-11-14T02:20:00;7.80;99.90
14095;DHT22;18096;48.142;16.290;2022-11-14T02:22:25;7.80;99.90
14095;DHT22;18096;48.142;16.290;2022-11-14T02:24:51;7.80;99.90
14095;DHT22;18096;48.142;16.290;2022-11-14T02:27:16;7.90;99.90
14095;DHT22;18096;48.142;16.290;2022-11-14T02:29:42;7.90;99.90
14095;DHT22;18096;48.142;16.290;2022-11-14T02:32:08;7.90;99.90
14095;DHT22;18096;48.142;16.290;2022-11-14T02:34:34;7.90;99.90
14095;DHT22;18096;48.142;16.290;2022-11-14T02:36:59;7.90;99.90
14095;DHT22;18096;48.142;16.290;2022-11-14T02:39:25;7.90;99.90
14095;DHT22;18096;48.142;16.290;2022-11-14T02:41:51;7.90;99.90
14095;DHT22;18096;48.142;16.290;2022-11-14T02:44:17;7.90;99.90
14095;DHT22;18096;48.142;16.290;2022-11-14T02:46:43;7.90;99.90
14095;DHT22;18096;48.142;16.290;2022-11-14T02:49:09;7.90;99.90
14095;DHT22;18096;48.142;16.290;2022-11-14T02:51:34;7.90;99.90
14095;DHT22;18096;48.142;16.290;2022-11-14T02:54:00;7.90;99.90
14095;DHT22;18096;48.142;16.290;2022-11-14T02:56:26;8.00;99.90
14095;DHT22;18096;48.142;16.290;2022-11-14T02:58:51;8.00;99.90
14095;DHT22;18096;48.142;16.290;2022-11-14T03:01:17;7.90;99.90
14095;DHT22;18096;48.142;16.290;2022-11-14T03:03:43;7.90;99.90
14095;DHT22;18096;48.142;16.290;2022-11-14T03:06:09;7.90;99.90
14095;DHT22;18096;48.142;16.290;2022-11-14T03:08:34;8.00;99.90
14095;DHT22;18096;48.142;16.290;2022-11-14T03:11:07;8.00;99.90
14095;DHT22;18096;48.142;16.290;2022-11-14T03:13:34;8.00;99.90
14095;DHT22;18096;48.142;16.290;2022-11-14T03:16:08;7.90;99.90
14095;DHT22;18096;48.142;16.290;2022-11-14T03:18:34;7.90;99.90
14095;DHT22;18096;48.142;16.290;2022-11-14T03:21:07;7.90;99.90
14095;DHT22;18096;48.142;16.290;2022-11-14T03:23:33;7.90;99.90
14095;DHT22;18096;48.142;16.290;2022-11-14T03:26:04;7.90;99.90
14095;DHT22;18096;48.142;16.290;2022-11-14T03:28:30;7.80;99.90
14095;DHT22;18096;48.142;16.290;2022-11-14T03:30:56;7.90;99.90
14095;DHT22;18096;48.142;16.290;2022-11-14T03:33:22;7.90;99.90
14095;DHT22;18096;48.142;16.290;2022-11-14T03:35:49;7.80;99.90
14095;DHT22;18096;48.142;16.290;2022-11-14T03:38:15;7.90;99.90
14095;DHT22;18096;48.142;16.290;2022-11-14T03:40:42;7.90;99.90
14095;DHT22;18096;48.142;16.290;2022-11-14T03:43:07;7.90;99.90
14095;DHT22;18096;48.142;16.290;2022-11-14T03:45:35;7.90;99.90
14095;DHT22;18096;48.142;16.290;2022-11-14T03:48:00;7.90;99.90
14095;DHT22;18096;48.142;16.290;2022-11-14T03:50:26;7.90;99.90
14095;DHT22;18096;48.142;16.290;2022-11-14T03:52:52;7.90;99.90
14095;DHT22;18096;48.142;16.290;2022-11-14T03:55:17;7.90;99.90
14095;DHT22;18096;48.142;16.290;2022-11-14T03:57:43;7.90;99.90
14095;DHT22;18096;48.142;16.290;2022-11-14T04:00:09;7.90;99.90
14095;DHT22;18096;48.142;16.290;2022-11-14T04:02:35;7.90;99.90
14095;DHT22;18096;48.142;16.290;2022-11-14T04:05:00;7.90;99.90
14095;DHT22;18096;48.142;16.290;2022-11-14T04:07:26;8.00;99.90
14095;DHT22;18096;48.142;16.290;2022-11-14T04:09:51;8.00;99.90
14095;DHT22;18096;48.142;16.290;2022-11-14T04:12:17;7.90;99.90
14095;DHT22;18096;48.142;16.290;2022-11-14T04:14:43;7.90;99.90
14095;DHT22;18096;48.142;16.290;2022-11-14T04:17:09;7.90;99.90
14095;DHT22;18096;48.142;16.290;2022-11-14T04:19:35;7.90;99.90
14095;DHT22;18096;48.142;16.290;2022-11-14T04:22:00;7.90;99.90
14095;DHT22;18096;48.142;16.290;2022-11-14T04:24:26;7.90;99.90
14095;DHT22;18096;48.142;16.290;2022-11-14T04:26:51;7.90;99.90
14095;DHT22;18096;48.142;16.290;2022-11-14T04:29:17;8.00;99.90
14095;DHT22;18096;48.142;16.290;2022-11-14T04:31:43;8.00;99.90
14095;DHT22;18096;48.142;16.290;2022-11-14T04:34:08;7.90;99.90
14095;DHT22;18096;48.142;16.290;2022-11-14T04:36:34;7.90;99.90
14095;DHT22;18096;48.142;16.290;2022-11-14T04:39:00;7.90;99.90
14095;DHT22;18096;48.142;16.290;2022-11-14T04:41:25;7.90;99.90
14095;DHT22;18096;48.142;16.290;2022-11-14T04:43:51;8.00;99.90
14095;DHT22;18096;48.142;16.290;2022-11-14T04:46:17;7.90;99.90
14095;DHT22;18096;48.142;16.290;2022-11-14T04:48:42;7.90;99.90
14095;DHT22;18096;48.142;16.290;2022-11-14T04:51:08;7.90;99.90
14095;DHT22;18096;48.142;16.290;2022-11-14T04:53:34;7.90;99.90
14095;DHT22;18096;48.142;16.290;2022-11-14T04:55:59;7.80;99.90
14095;DHT22;18096;48.142;16.290;2022-11-14T04:58:25;7.80;99.90
14095;DHT22;18096;48.142;16.290;2022-11-14T05:00:51;7.80;99.90
14095;DHT22;18096;48.142;16.290;2022-11-14T05:03:16;7.80;99.90
14095;DHT22;18096;48.142;16.290;2022-11-14T05:05:42;7.80;99.90
14095;DHT22;18096;48.142;16.290;2022-11-14T05:08:07;7.70;99.90
14095;DHT22;18096;48.142;16.290;2022-11-14T05:10:33;7.80;99.90
14095;DHT22;18096;48.142;16.290;2022-11-14T05:12:59;7.80;99.90
14095;DHT22;18096;48.142;16.290;2022-11-14T05:15:25;7.80;99.90
14095;DHT22;18096;48.142;16.290;2022-11-14T05:17:50;7.80;99.90
14095;DHT22;18096;48.142;16.290;2022-11-14T05:20:16;7.70;99.90
14095;DHT22;18096;48.142;16.290;2022-11-14T05:22:42;7.70;99.90
14095;DHT22;18096;48.142;16.290;2022-11-14T05:25:08;7.60;99.90
14095;DHT22;18096;48.142;16.290;2022-11-14T05:27:34;7.70;99.90
14095;DHT22;18096;48.142;16.290;2022-11-14T05:29:59;7.70;99.90
14095;DHT22;18096;48.142;16.290;2022-11-14T05:32:25;7.70;99.90
14095;DHT22;18096;48.142;16.290;2022-11-14T05:34:51;7.70;99.90
14095;DHT22;18096;48.142;16.290;2022-11-14T05:37:16;7.70;99.90
14095;DHT22;18096;48.142;16.290;2022-11-14T05:39:42;7.70;99.90
14095;DHT22;18096;48.142;16.290;2022-11-14T05:42:07;7.70;99.90
14095;DHT22;18096;48.142;16.290;2022-11-14T05:44:33;7.60;99.90
14095;DHT22;18096;48.142;16.290;2022-11-14T05:46:59;7.60;99.90
14095;DHT22;18096;48.142;16.290;2022-11-14T05:49:24;7.60;99.90
14095;DHT22;18096;48.142;16.290;2022-11-14T05:51:50;7.50;99.90
14095;DHT22;18096;48.142;16.290;2022-11-14T05:54:15;7.50;99.90
14095;DHT22;18096;48.142;16.290;2022-11-14T05:56:41;7.50;99.90
14095;DHT22;18096;48.142;16.290;2022-11-14T05:59:07;7.50;99.90
14095;DHT22;18096;48.142;16.290;2022-11-14T06:01:32;7.50;99.90
14095;DHT22;18096;48.142;16.290;2022-11-14T06:03:58;7.50;99.90
14095;DHT22;18096;48.142;16.290;2022-11-14T06:06:24;7.50;99.90
14095;DHT22;18096;48.142;16.290;2022-11-14T06:08:49;7.50;99.90
14095;DHT22;18096;48.142;16.290;2022-11-14T06:11:17;7.60;99.90
14095;DHT22;18096;48.142;16.290;2022-11-14T06:13:44;7.60;99.90
14095;DHT22;18096;48.142;16.290;2022-11-14T06:16:14;7.50;99.90
14095;DHT22;18096;48.142;16.290;2022-11-14T06:18:41;7.50;99.90
14095;DHT22;18096;48.142;16.290;2022-11-14T06:21:18;7.50;99.90
14095;DHT22;18096;48.142;16.290;2022-11-14T06:23:44;7.50;99.90
14095;DHT22;18096;48.142;16.290;2022-11-14T06:28:49;7.60;99.90
14095;DHT22;18096;48.142;16.290;2022-11-14T06:31:15;7.60;99.90
14095;DHT22;18096;48.142;16.290;2022-11-14T06:33:41;7.60;99.90
14095;DHT22;18096;48.142;16.290;2022-11-14T06:36:07;7.60;99.90
14095;DHT22;18096;48.142;16.290;2022-11-14T06:38:35;7.60;99.90
14095;DHT22;18096;48.142;16.290;2022-11-14T06:41:06;7.60;99.90
14095;DHT22;18096;48.142;16.290;2022-11-14T06:43:37;7.70;99.90
14095;DHT22;18096;48.142;16.290;2022-11-14T06:46:03;7.70;99.90
14095;DHT22;18096;48.142;16.290;2022-11-14T06:48:29;7.70;99.90
14095;DHT22;18096;48.142;16.290;2022-11-14T06:50:56;7.70;99.90
14095;DHT22;18096;48.142;16.290;2022-11-14T06:53:23;7.70;99.90
14095;DHT22;18096;48.142;16.290;2022-11-14T06:58:24;7.70;99.90
14095;DHT22;18096;48.142;16.290;2022-11-14T07:00:50;7.70;99.90
14095;DHT22;18096;48.142;16.290;2022-11-14T07:03:16;7.80;99.90
14095;DHT22;18096;48.142;16.290;2022-11-14T07:05:41;7.80;99.90
14095;DHT22;18096;48.142;16.290;2022-11-14T07:08:07;7.80;99.90
14095;DHT22;18096;48.142;16.290;2022-11-14T07:10:33;7.80;99.90
14095;DHT22;18096;48.142;16.290;2022-11-14T07:12:59;7.80;99.90
14095;DHT22;18096;48.142;16.290;2022-11-14T07:15:24;7.90;99.90
14095;DHT22;18096;48.142;16.290;2022-11-14T07:17:50;7.90;99.90
14095;DHT22;18096;48.142;16.290;2022-11-14T07:20:16;7.90;99.90
14095;DHT22;18096;48.142;16.290;2022-11-14T07:22:44;7.90;99.90
14095;DHT22;18096;48.142;16.290;2022-11-14T07:25:10;7.90;99.90
14095;DHT22;18096;48.142;16.290;2022-11-14T07:27:36;7.90;99.90
14095;DHT22;18096;48.142;16.290;2022-11-14T07:30:02;8.00;99.90
14095;DHT22;18096;48.142;16.290;2022-11-14T07:32:28;8.00;99.90
14095;DHT22;18096;48.142;16.290;2022-11-14T07:34:54;8.00;99.90
14095;DHT22;18096;48.142;16.290;2022-11-14T07:37:19;8.10;99.90
14095;DHT22;18096;48.142;16.290;2022-11-14T07:39:45;8.10;99.90
14095;DHT22;18096;48.142;16.290;2022-11-14T07:42:11;8.10;99.90
14095;DHT22;18096;48.142;16.290;2022-11-14T07:44:36;8.10;99.90
14095;DHT22;18096;48.142;16.290;2022-11-14T07:47:02;8.10;99.90
14095;DHT22;18096;48.142;16.290;2022-11-14T07:49:28;8.10;99.90
14095;DHT22;18096;48.142;16.290;2022-11-14T07:51:53;8.20;99.90
14095;DHT22;18096;48.142;16.290;2022-11-14T07:54:19;8.10;99.90
14095;DHT22;18096;48.142;16.290;2022-11-14T07:56:45;8.20;99.90
14095;DHT22;18096;48.142;16.290;2022-11-14T07:59:10;8.10;99.90
14095;DHT22;18096;48.142;16.290;2022-11-14T08:01:36;8.20;99.90
14095;DHT22;18096;48.142;16.290;2022-11-14T08:04:01;8.20;99.90
14095;DHT22;18096;48.142;16.290;2022-11-14T08:06:27;8.20;99.90
14095;DHT22;18096;48.142;16.290;2022-11-14T08:08:53;8.30;99.90
14095;DHT22;18096;48.142;16.290;2022-11-14T08:11:19;8.30;99.90
14095;DHT22;18096;48.142;16.290;2022-11-14T08:14:07;8.30;99.90
14095;DHT22;18096;48.142;16.290;2022-11-14T08:16:33;8.30;99.90
14095;DHT22;18096;48.142;16.290;2022-11-14T08:18:59;8.30;99.90
14095;DHT22;18096;48.142;16.290;2022-11-14T08:21:24;8.30;99.90
14095;DHT22;18096;48.142;16.290;2022-11-14T08:23:50;8.30;99.90
14095;DHT22;18096;48.142;16.290;2022-11-14T08:26:16;8.40;99.90
14095;DHT22;18096;48.142;16.290;2022-11-14T08:28:41;8.40;99.90
14095;DHT22;18096;48.142;16.290;2022-11-14T08:31:07;8.50;99.90
14095;DHT22;18096;48.142;16.290;2022-11-14T08:33:34;8.60;99.90
14095;DHT22;18096;48.142;16.290;2022-11-14T08:36:05;8.60;99.90
14095;DHT22;18096;48.142;16.290;2022-11-14T08:38:31;8.70;99.90
14095;DHT22;18096;48.142;16.290;2022-11-14T08:41:01;8.70;99.90
14095;DHT22;18096;48.142;16.290;2022-11-14T08:43:28;8.70;99.90
14095;DHT22;18096;48.142;16.290;2022-11-14T08:46:01;8.80;99.90
14095;DHT22;18096;48.142;16.290;2022-11-14T08:48:28;8.80;99.90
14095;DHT22;18096;48.142;16.290;2022-11-14T08:50:54;8.80;99.90
14095;DHT22;18096;48.142;16.290;2022-11-14T08:53:20;8.80;99.90
14095;DHT22;18096;48.142;16.290;2022-11-14T08:55:46;8.80;99.90
14095;DHT22;18096;48.142;16.290;2022-11-14T08:58:12;8.90;99.90
14095;DHT22;18096;48.142;16.290;2022-11-14T09:00:38;8.90;99.90
14095;DHT22;18096;48.142;16.290;2022-11-14T09:03:10;8.90;99.90
14095;DHT22;18096;48.142;16.290;2022-11-14T09:05:40;8.90;99.90
14095;DHT22;18096;48.142;16.290;2022-11-14T09:08:06;8.90;99.90
14095;DHT22;18096;48.142;16.290;2022-11-14T09:10:33;9.00;99.90
14095;DHT22;18096;48.142;16.290;2022-11-14T09:13:00;9.00;99.90
14095;DHT22;18096;48.142;16.290;2022-11-14T09:15:27;9.00;99.90
14095;DHT22;18096;48.142;16.290;2022-11-14T09:17:54;9.10;99.90
14095;DHT22;18096;48.142;16.290;2022-11-14T09:20:24;9.10;99.90
14095;DHT22;18096;48.142;16.290;2022-11-14T09:22:50;9.10;99.90
14095;DHT22;18096;48.142;16.290;2022-11-14T09:25:18;9.20;99.90
14095;DHT22;18096;48.142;16.290;2022-11-14T09:27:44;9.20;99.90
14095;DHT22;18096;48.142;16.290;2022-11-14T09:30:10;9.20;99.90
14095;DHT22;18096;48.142;16.290;2022-11-14T09:32:36;9.20;99.90
14095;DHT22;18096;48.142;16.290;2022-11-14T09:35:03;9.30;99.90
14095;DHT22;18096;48.142;16.290;2022-11-14T09:37:28;9.30;99.90
14095;DHT22;18096;48.142;16.290;2022-11-14T09:39:54;9.40;99.90
14095;DHT22;18096;48.142;16.290;2022-11-14T09:44:59;9.50;99.90
14095;DHT22;18096;48.142;16.290;2022-11-14T09:47:32;9.60;99.90
14095;DHT22;18096;48.142;16.290;2022-11-14T09:50:32;9.70;99.90
14095;DHT22;18096;48.142;16.290;2022-11-14T09:53:04;9.70;99.90
14095;DHT22;18096;48.142;16.290;2022-11-14T09:55:34;9.80;99.90
14095;DHT22;18096;48.142;16.290;2022-11-14T09:58:03;9.90;99.90
14095;DHT22;18096;48.142;16.290;2022-11-14T10:00:43;9.90;99.90
14095;DHT22;18096;48.142;16.290;2022-11-14T10:11:12;10.00;99.90
14095;DHT22;18096;48.142;16.290;2022-11-14T10:14:56;10.00;99.90
14095;DHT22;18096;48.142;16.290;2022-11-14T10:27:44;10.20;99.90
14095;DHT22;18096;48.142;16.290;2022-11-14T10:30:17;10.30;99.90
14095;DHT22;18096;48.142;16.290;2022-11-14T10:35:30;10.30;99.90
14095;DHT22;18096;48.142;16.290;2022-11-14T10:40:44;10.40;99.90
14095;DHT22;18096;48.142;16.290;2022-11-14T10:43:22;10.30;99.90
14095;DHT22;18096;48.142;16.290;2022-11-14T10:46:11;10.40;99.90
14095;DHT22;18096;48.142;16.290;2022-11-14T10:48:43;10.40;99.90
14095;DHT22;18096;48.142;16.290;2022-11-14T10:54:02;10.50;99.90
14095;DHT22;18096;48.142;16.290;2022-11-14T10:56:30;10.60;99.90
14095;DHT22;18096;48.142;16.290;2022-11-14T10:58:55;10.70;99.90
14095;DHT22;18096;48.142;16.290;2022-11-14T11:01:35;10.70;99.90
14095;DHT22;18096;48.142;16.290;2022-11-14T11:04:27;10.80;99.90
14095;DHT22;18096;48.142;16.290;2022-11-14T11:07:20;10.90;99.90
14095;DHT22;18096;48.142;16.290;2022-11-14T11:10:03;10.90;99.90
14095;DHT22;18096;48.142;16.290;2022-11-14T11:12:52;11.00;99.90
14095;DHT22;18096;48.142;16.290;2022-11-14T11:15:27;11.00;99.90
14095;DHT22;18096;48.142;16.290;2022-11-14T11:18:22;11.00;99.90
14095;DHT22;18096;48.142;16.290;2022-11-14T11:21:09;11.10;99.90
14095;DHT22;18096;48.142;16.290;2022-11-14T11:23:36;11.10;99.90
14095;DHT22;18096;48.142;16.290;2022-11-14T11:29:20;11.20;99.90
14095;DHT22;18096;48.142;16.290;2022-11-14T11:34:14;11.30;99.90
14095;DHT22;18096;48.142;16.290;2022-11-14T11:36:47;11.30;99.90
14095;DHT22;18096;48.142;16.290;2022-11-14T11:39:27;11.30;99.90
14095;DHT22;18096;48.142;16.290;2022-11-14T11:41:55;11.20;99.90
14095;DHT22;18096;48.142;16.290;2022-11-14T11:44:29;11.20;99.90
14095;DHT22;18096;48.142;16.290;2022-11-14T11:47:00;11.20;99.90
14095;DHT22;18096;48.142;16.290;2022-11-14T11:49:42;11.10;99.90
14095;DHT22;18096;48.142;16.290;2022-11-14T11:52:16;11.10;99.90
14095;DHT22;18096;48.142;16.290;2022-11-14T11:54:57;11.10;99.90
14095;DHT22;18096;48.142;16.290;2022-11-14T11:57:29;11.10;99.90
14095;DHT22;18096;48.142;16.290;2022-11-14T12:00:04;11.00;99.90
14095;DHT22;18096;48.142;16.290;2022-11-14T12:02:31;10.90;99.90
14095;DHT22;18096;48.142;16.290;2022-11-14T12:04:57;10.90;99.90
14095;DHT22;18096;48.142;16.290;2022-11-14T12:09:58;10.80;99.90
14095;DHT22;18096;48.142;16.290;2022-11-14T12:15:23;10.70;99.90
14095;DHT22;18096;48.142;16.290;2022-11-14T12:31:18;10.30;99.90
14095;DHT22;18096;48.142;16.290;2022-11-14T12:33:58;10.30;99.90
14095;DHT22;18096;48.142;16.290;2022-11-14T12:36:32;10.30;99.90
14095;DHT22;18096;48.142;16.290;2022-11-14T12:39:00;10.30;99.90
14095;DHT22;18096;48.142;16.290;2022-11-14T12:41:32;10.20;99.90
14095;DHT22;18096;48.142;16.290;2022-11-14T12:44:29;10.20;99.90
14095;DHT22;18096;48.142;16.290;2022-11-14T12:58:07;10.30;99.90
14095;DHT22;18096;48.142;16.290;2022-11-14T13:10:55;10.10;99.90
14095;DHT22;18096;48.142;16.290;2022-11-14T13:13:22;10.20;99.90
14095;DHT22;18096;48.142;16.290;2022-11-14T13:16:24;10.10;99.90
14095;DHT22;18096;48.142;16.290;2022-11-14T13:27:37;10.10;99.90
14095;DHT22;18096;48.142;16.290;2022-11-14T13:30:04;10.10;99.90
14095;DHT22;18096;48.142;16.290;2022-11-14T13:37:50;10.00;99.90
14095;DHT22;18096;48.142;16.290;2022-11-14T13:43:19;10.00;99.90
14095;DHT22;18096;48.142;16.290;2022-11-14T13:46:10;10.10;99.90
14095;DHT22;18096;48.142;16.290;2022-11-14T13:51:15;10.00;99.90
14095;DHT22;18096;48.142;16.290;2022-11-14T13:53:42;10.00;99.90
14095;DHT22;18096;48.142;16.290;2022-11-14T13:56:34;10.00;99.90
14095;DHT22;18096;48.142;16.290;2022-11-14T14:05:08;9.90;99.90
14095;DHT22;18096;48.142;16.290;2022-11-14T14:07:57;9.90;99.90
14095;DHT22;18096;48.142;16.290;2022-11-14T14:19:17;9.70;99.90
14095;DHT22;18096;48.142;16.290;2022-11-14T14:24:55;9.60;99.90
14095;DHT22;18096;48.142;16.290;2022-11-14T14:30:11;9.60;99.90
14095;DHT22;18096;48.142;16.290;2022-11-14T14:32:37;9.60;99.90
14095;DHT22;18096;48.142;16.290;2022-11-14T14:37:53;9.50;99.90
14095;DHT22;18096;48.142;16.290;2022-11-14T14:40:31;9.40;99.90
14095;DHT22;18096;48.142;16.290;2022-11-14T14:43:02;9.40;99.90
14095;DHT22;18096;48.142;16.290;2022-11-14T14:45:30;9.40;99.90
14095;DHT22;18096;48.142;16.290;2022-11-14T14:48:02;9.40;99.90
14095;DHT22;18096;48.142;16.290;2022-11-14T14:50:34;9.40;99.90
14095;DHT22;18096;48.142;16.290;2022-11-14T14:53:03;9.40;99.90
14095;DHT22;18096;48.142;16.290;2022-11-14T14:55:34;9.40;99.90
14095;DHT22;18096;48.142;16.290;2022-11-14T15:00:58;9.30;99.90
14095;DHT22;18096;48.142;16.290;2022-11-14T15:03:35;9.30;99.90
14095;DHT22;18096;48.142;16.290;2022-11-14T15:06:04;9.30;99.90
14095;DHT22;18096;48.142;16.290;2022-11-14T15:08:34;9.30;99.90
14095;DHT22;18096;48.142;16.290;2022-11-14T15:11:02;9.30;99.90
14095;DHT22;18096;48.142;16.290;2022-11-14T15:13:29;9.20;99.90
14095;DHT22;18096;48.142;16.290;2022-11-14T15:15:56;9.20;99.90
14095;DHT22;18096;48.142;16.290;2022-11-14T15:18:30;9.20;99.90
14095;DHT22;18096;48.142;16.290;2022-11-14T15:21:16;9.10;99.90
14095;DHT22;18096;48.142;16.290;2022-11-14T15:24:00;9.10;99.90
14095;DHT22;18096;48.142;16.290;2022-11-14T15:26:28;9.10;99.90
14095;DHT22;18096;48.142;16.290;2022-11-14T15:29:27;9.10;99.90
14095;DHT22;18096;48.142;16.290;2022-11-14T15:31:58;9.10;99.90
14095;DHT22;18096;48.142;16.290;2022-11-14T15:34:37;9.10;99.90
14095;DHT22;18096;48.142;16.290;2022-11-14T15:39:35;9.00;99.90
14095;DHT22;18096;48.142;16.290;2022-11-14T15:42:31;9.00;99.90
14095;DHT22;18096;48.142;16.290;2022-11-14T15:44:56;9.10;99.90
14095;DHT22;18096;48.142;16.290;2022-11-14T15:47:42;9.10;99.90
14095;DHT22;18096;48.142;16.290;2022-11-14T15:52:48;9.10;99.90
14095;DHT22;18096;48.142;16.290;2022-11-14T15:55:20;9.20;99.90
14095;DHT22;18096;48.142;16.290;2022-11-14T15:57:46;9.10;99.90
14095;DHT22;18096;48.142;16.290;2022-11-14T16:00:13;9.20;99.90
14095;DHT22;18096;48.142;16.290;2022-11-14T16:02:57;9.20;99.90
14095;DHT22;18096;48.142;16.290;2022-11-14T16:05:30;9.20;99.90
14095;DHT22;18096;48.142;16.290;2022-11-14T16:07:56;9.20;99.90
14095;DHT22;18096;48.142;16.290;2022-11-14T16:10:24;9.20;99.90
14095;DHT22;18096;48.142;16.290;2022-11-14T16:12:51;9.20;99.90
14095;DHT22;18096;48.142;16.290;2022-11-14T16:15:19;9.30;99.90
14095;DHT22;18096;48.142;16.290;2022-11-14T16:17:46;9.30;99.90
14095;DHT22;18096;48.142;16.290;2022-11-14T16:20:27;9.30;99.90
14095;DHT22;18096;48.142;16.290;2022-11-14T16:22:53;9.30;99.90
14095;DHT22;18096;48.142;16.290;2022-11-14T16:25:22;9.20;99.90
14095;DHT22;18096;48.142;16.290;2022-11-14T16:27:48;9.20;99.90
14095;DHT22;18096;48.142;16.290;2022-11-14T16:30:16;9.20;99.90
14095;DHT22;18096;48.142;16.290;2022-11-14T16:32:44;9.20;99.90
14095;DHT22;18096;48.142;16.290;2022-11-14T16:35:15;9.20;99.90
14095;DHT22;18096;48.142;16.290;2022-11-14T16:37:41;9.10;99.90
14095;DHT22;18096;48.142;16.290;2022-11-14T16:40:16;9.10;99.90
14095;DHT22;18096;48.142;16.290;2022-11-14T16:42:44;9.10;99.90
14095;DHT22;18096;48.142;16.290;2022-11-14T16:45:10;9.00;99.90
14095;DHT22;18096;48.142;16.290;2022-11-14T16:47:37;9.00;99.90
14095;DHT22;18096;48.142;16.290;2022-11-14T16:50:03;9.00;99.90
14095;DHT22;18096;48.142;16.290;2022-11-14T16:52:29;9.00;99.90
14095;DHT22;18096;48.142;16.290;2022-11-14T16:54:54;8.90;99.90
14095;DHT22;18096;48.142;16.290;2022-11-14T16:57:20;8.90;99.90
14095;DHT22;18096;48.142;16.290;2022-11-14T16:59:46;8.90;99.90
14095;DHT22;18096;48.142;16.290;2022-11-14T17:02:15;8.80;99.90
14095;DHT22;18096;48.142;16.290;2022-11-14T17:04:41;8.80;99.90
14095;DHT22;18096;48.142;16.290;2022-11-14T17:07:08;8.80;99.90
14095;DHT22;18096;48.142;16.290;2022-11-14T17:09:33;8.80;99.90
14095;DHT22;18096;48.142;16.290;2022-11-14T17:11:59;8.70;99.90
14095;DHT22;18096;48.142;16.290;2022-11-14T17:14:25;8.70;99.90
14095;DHT22;18096;48.142;16.290;2022-11-14T17:16:51;8.70;99.90
14095;DHT22;18096;48.142;16.290;2022-11-14T17:19:17;8.70;99.90
14095;DHT22;18096;48.142;16.290;2022-11-14T17:21:43;8.60;99.90
14095;DHT22;18096;48.142;16.290;2022-11-14T17:24:09;8.60;99.90
14095;DHT22;18096;48.142;16.290;2022-11-14T17:26:35;8.50;99.90
14095;DHT22;18096;48.142;16.290;2022-11-14T17:29:02;8.50;99.90
14095;DHT22;18096;48.142;16.290;2022-11-14T17:31:29;8.40;99.90
14095;DHT22;18096;48.142;16.290;2022-11-14T17:33:56;8.40;99.90
14095;DHT22;18096;48.142;16.290;2022-11-14T17:36:24;8.40;99.90
14095;DHT22;18096;48.142;16.290;2022-11-14T17:38:50;8.40;99.90
14095;DHT22;18096;48.142;16.290;2022-11-14T17:41:16;8.30;99.90
14095;DHT22;18096;48.142;16.290;2022-11-14T17:43:43;8.30;99.90
14095;DHT22;18096;48.142;16.290;2022-11-14T17:46:12;8.30;99.90
14095;DHT22;18096;48.142;16.290;2022-11-14T17:48:38;8.20;99.90
14095;DHT22;18096;48.142;16.290;2022-11-14T17:51:06;8.20;99.90